createdAt,value
2022-11-28T00:01:27.477Z,17.50
2022-11-28T00:03:55.208Z,15.50
2022-11-28T00:06:23.481Z,20.60
2022-11-28T00:08:51.555Z,18.40
2022-11-28T00:11:20.591Z,14.43
2022-11-28T00:13:48.200Z,12.27
2022-11-28T00:16:17.590Z,17.17
2022-11-28T00:18:45.718Z,15.47
2022-11-28T00:21:14.682Z,16.10
2022-11-28T00:23:42.321Z,16.33
2022-11-28T00:26:11.826Z,11.47
2022-11-28T00:28:41.069Z,12.83
2022-11-28T00:31:13.502Z,14.43
2022-11-28T00:33:41.089Z,18.10
2022-11-28T00:36:09.287Z,16.97
2022-11-28T00:38:37.255Z,14.90
2022-11-28T00:41:06.652Z,12.60
2022-11-28T00:43:34.607Z,13.50
2022-11-28T00:46:04.201Z,15.60
2022-11-28T00:48:33.054Z,15.03
2022-11-28T00:51:07.616Z,18.80
2022-11-28T00:53:35.267Z,15.50
2022-11-28T00:56:05.313Z,16.70
2022-11-28T00:58:33.638Z,12.93
2022-11-28T01:01:03.689Z,17.30
2022-11-28T01:03:31.315Z,12.53
2022-11-28T01:05:58.935Z,12.40
2022-11-28T01:08:26.727Z,13.00
2022-11-28T01:10:54.393Z,12.03
2022-11-28T01:13:22.200Z,13.13
2022-11-28T01:15:49.845Z,15.13
2022-11-28T01:30:57.879Z,13.90
2022-11-28T01:33:25.657Z,14.03
2022-11-28T01:35:56.838Z,10.57
2022-11-28T01:38:24.779Z,12.83
2022-11-28T01:40:52.901Z,13.10
2022-11-28T01:43:20.731Z,10.83
2022-11-28T01:45:48.671Z,12.93
2022-11-28T01:48:21.927Z,9.97
2022-11-28T01:50:51.310Z,15.97
2022-11-28T01:53:19.144Z,10.60
2022-11-28T01:55:56.539Z,11.40
2022-11-28T01:58:24.343Z,13.23
2022-11-28T02:00:52.936Z,11.60
2022-11-28T02:03:24.294Z,10.53
2022-11-28T02:05:52.630Z,11.10
2022-11-28T02:08:20.455Z,12.67
2022-11-28T02:11:02.018Z,10.20
2022-11-28T02:13:38.034Z,12.50
2022-11-28T02:16:15.770Z,16.13
2022-11-28T02:18:59.252Z,13.70
2022-11-28T02:21:53.103Z,10.73
2022-11-28T02:24:48.629Z,9.13
2022-11-28T02:27:24.301Z,14.03
2022-11-28T02:30:06.206Z,11.50
2022-11-28T02:32:43.858Z,11.80
2022-11-28T02:35:14.772Z,12.70
2022-11-28T02:37:46.272Z,11.97
2022-11-28T02:40:22.183Z,9.30
2022-11-28T02:42:57.712Z,15.30
2022-11-28T02:45:30.432Z,11.60
2022-11-28T02:48:03.462Z,15.70
2022-11-28T02:50:34.340Z,13.77
2022-11-28T02:53:06.545Z,13.30
2022-11-28T02:55:34.557Z,10.37
2022-11-28T02:58:02.317Z,13.40
2022-11-28T03:00:31.497Z,10.20
2022-11-28T03:03:16.295Z,14.87
2022-11-28T03:05:47.395Z,11.23
2022-11-28T03:08:26.145Z,13.37
2022-11-28T03:10:59.576Z,9.27
2022-11-28T03:13:32.877Z,18.80
2022-11-28T03:16:04.423Z,13.73
2022-11-28T03:18:35.661Z,12.23
2022-11-28T03:21:09.502Z,13.73
2022-11-28T03:23:42.851Z,10.53
2022-11-28T03:26:13.832Z,11.20
2022-11-28T03:28:45.406Z,15.77
2022-11-28T03:31:16.831Z,16.23
2022-11-28T03:33:49.658Z,10.13
2022-11-28T03:36:19.495Z,13.30
2022-11-28T03:38:49.841Z,8.40
2022-11-28T03:41:19.985Z,12.17
2022-11-28T03:43:50.786Z,11.40
2022-11-28T03:46:20.459Z,8.97
2022-11-28T03:48:51.803Z,13.67
2022-11-28T03:51:21.199Z,9.80
2022-11-28T03:53:52.085Z,9.60
2022-11-28T03:56:22.769Z,10.70
2022-11-28T03:58:53.616Z,9.97
2022-11-28T04:01:28.513Z,14.50
2022-11-28T04:04:02.251Z,12.33
2022-11-28T04:06:36.887Z,14.53
2022-11-28T04:09:11.516Z,9.03
2022-11-28T04:11:46.566Z,12.73
2022-11-28T04:14:18.841Z,18.03
2022-11-28T04:16:54.005Z,12.90
2022-11-28T04:19:29.295Z,10.83
2022-11-28T04:22:00.383Z,13.97
2022-11-28T04:24:30.720Z,13.07
2022-11-28T04:27:01.313Z,12.13
2022-11-28T04:29:32.974Z,12.10
2022-11-28T04:32:01.528Z,9.70
2022-11-28T04:34:31.948Z,12.80
2022-11-28T04:37:04.282Z,14.83
2022-11-28T04:39:36.449Z,11.10
2022-11-28T04:42:07.754Z,12.97
2022-11-28T04:44:38.947Z,11.20
2022-11-28T04:47:06.490Z,13.53
2022-11-28T04:49:35.766Z,10.77
2022-11-28T04:52:07.359Z,12.57
2022-11-28T04:54:39.095Z,15.57
2022-11-28T04:57:13.337Z,15.57
2022-11-28T04:59:41.860Z,11.80
2022-11-28T05:02:09.984Z,11.23
2022-11-28T05:04:39.232Z,15.27
2022-11-28T05:07:09.485Z,16.77
2022-11-28T05:09:38.244Z,18.47
2022-11-28T05:12:06.462Z,11.17
2022-11-28T05:14:33.998Z,11.07
2022-11-28T05:17:01.591Z,11.27
2022-11-28T05:19:29.219Z,13.33
2022-11-28T05:21:58.105Z,13.00
2022-11-28T05:24:31.931Z,16.80
2022-11-28T05:27:00.142Z,13.10
2022-11-28T05:29:27.744Z,12.77
2022-11-28T05:31:55.384Z,11.10
2022-11-28T05:34:23.090Z,13.33
2022-11-28T05:36:50.679Z,12.20
2022-11-28T05:39:19.771Z,11.80
2022-11-28T05:41:47.680Z,12.07
2022-11-28T05:44:15.283Z,15.77
2022-11-28T05:46:42.873Z,12.50
2022-11-28T05:49:10.779Z,13.13
2022-11-28T05:51:38.384Z,13.13
2022-11-28T05:54:06.722Z,12.60
2022-11-28T05:56:40.911Z,12.00
2022-11-28T05:59:10.072Z,13.37
2022-11-28T06:01:37.630Z,11.80
2022-11-28T06:04:05.619Z,12.97
2022-11-28T06:06:35.405Z,13.20
2022-11-28T06:09:03.074Z,14.40
2022-11-28T06:11:31.999Z,15.53
2022-11-28T06:14:00.947Z,13.63
2022-11-28T06:16:30.691Z,15.00
2022-11-28T06:18:59.670Z,13.03
2022-11-28T06:21:27.700Z,11.80
2022-11-28T06:23:55.673Z,15.60
2022-11-28T06:26:24.521Z,16.80
2022-11-28T06:28:52.298Z,17.43
2022-11-28T06:31:22.709Z,11.40
2022-11-28T06:33:50.557Z,10.90
2022-11-28T06:36:19.807Z,12.93
2022-11-28T06:38:47.864Z,11.03
2022-11-28T06:41:17.536Z,13.33
2022-11-28T06:43:46.525Z,18.43
2022-11-28T06:46:16.379Z,11.87
2022-11-28T06:48:45.683Z,17.17
2022-11-28T06:51:14.141Z,16.70
2022-11-28T06:53:41.765Z,14.50
2022-11-28T06:56:11.636Z,13.50
2022-11-28T06:58:39.271Z,11.00
2022-11-28T07:01:08.462Z,13.10
2022-11-28T07:03:36.115Z,18.13
2022-11-28T07:06:06.228Z,14.47
2022-11-28T07:08:34.523Z,13.87
2022-11-28T07:11:09.095Z,23.13
2022-11-28T07:13:37.253Z,13.40
2022-11-28T07:16:05.261Z,13.47
2022-11-28T07:18:33.387Z,19.80
2022-11-28T07:21:01.116Z,15.47
2022-11-28T07:23:29.983Z,14.90
2022-11-28T07:26:00.834Z,12.00
2022-11-28T07:28:28.990Z,11.60
2022-11-28T07:31:05.057Z,17.07
2022-11-28T07:33:32.864Z,17.07
2022-11-28T07:36:01.666Z,14.40
2022-11-28T07:38:30.704Z,18.73
2022-11-28T07:41:04.363Z,13.57
2022-11-28T07:43:31.995Z,14.87
2022-11-28T07:46:01.578Z,12.57
2022-11-28T07:48:29.618Z,16.93
2022-11-28T07:50:57.500Z,14.63
2022-11-28T07:53:25.159Z,14.63
2022-11-28T07:55:54.202Z,13.80
2022-11-28T07:58:22.648Z,13.90
2022-11-28T08:00:50.313Z,16.13
2022-11-28T08:03:18.057Z,13.63
2022-11-28T08:05:49.528Z,16.30
2022-11-28T08:08:18.267Z,16.03
2022-11-28T08:10:46.029Z,15.13
2022-11-28T08:13:15.153Z,15.47
2022-11-28T08:15:42.958Z,15.00
2022-11-28T08:18:10.902Z,18.00
2022-11-28T08:20:38.463Z,17.30
2022-11-28T08:23:06.072Z,14.30
2022-11-28T08:25:33.631Z,22.83
2022-11-28T08:28:01.391Z,18.30
2022-11-28T08:30:30.753Z,14.87
2022-11-28T08:32:58.555Z,16.73
2022-11-28T08:35:26.160Z,19.50
2022-11-28T08:37:56.534Z,14.70
2022-11-28T08:40:28.707Z,15.63
2022-11-28T08:42:56.600Z,14.30
2022-11-28T08:45:24.581Z,18.03
2022-11-28T08:47:53.620Z,18.03
2022-11-28T08:50:21.291Z,17.37
2022-11-28T08:52:49.956Z,16.33
2022-11-28T08:55:19.955Z,16.53
2022-11-28T08:57:51.172Z,15.90
2022-11-28T09:00:20.380Z,15.70
2022-11-28T09:02:48.055Z,17.77
2022-11-28T09:05:17.013Z,16.90
2022-11-28T09:07:44.861Z,17.03
2022-11-28T09:10:12.721Z,15.57
2022-11-28T09:12:40.405Z,17.63
2022-11-28T09:15:10.534Z,22.37
2022-11-28T09:17:38.217Z,17.57
2022-11-28T09:20:07.207Z,19.33
2022-11-28T09:22:36.395Z,17.73
2022-11-28T09:25:04.168Z,14.43
2022-11-28T09:27:31.925Z,18.90
2022-11-28T09:29:59.519Z,14.93
2022-11-28T09:32:27.084Z,19.83
2022-11-28T09:34:54.667Z,18.30
2022-11-28T09:37:22.304Z,19.83
2022-11-28T09:40:12.139Z,18.53
2022-11-28T09:42:43.983Z,17.47
2022-11-28T09:45:14.671Z,19.47
2022-11-28T09:47:44.386Z,17.70
2022-11-28T09:50:16.486Z,18.30
2022-11-28T09:52:48.271Z,16.63
2022-11-28T09:55:23.951Z,19.33
2022-11-28T09:57:53.348Z,19.03
2022-11-28T10:00:22.960Z,16.63
2022-11-28T10:03:15.453Z,15.13
2022-11-28T10:05:45.313Z,18.00
2022-11-28T10:08:23.123Z,15.23
2022-11-28T10:10:58.281Z,17.47
2022-11-28T10:13:41.356Z,26.70
2022-11-28T10:16:18.469Z,18.00
2022-11-28T10:18:48.852Z,19.97
2022-11-28T10:21:28.068Z,18.87
2022-11-28T10:23:58.129Z,17.73
2022-11-28T10:26:32.180Z,20.03
2022-11-28T10:29:00.995Z,17.77
2022-11-28T10:31:32.019Z,17.10
2022-11-28T10:34:04.591Z,14.67
2022-11-28T10:36:38.536Z,17.90
2022-11-28T10:39:11.554Z,15.97
2022-11-28T10:41:45.211Z,18.77
2022-11-28T10:44:21.297Z,14.50
2022-11-28T10:46:56.301Z,14.10
2022-11-28T10:49:30.988Z,15.97
2022-11-28T10:52:05.111Z,14.73
2022-11-28T10:54:47.622Z,17.97
2022-11-28T10:57:19.177Z,16.20
2022-11-28T11:00:00.824Z,15.80
2022-11-28T11:02:34.842Z,16.23
2022-11-28T11:05:02.712Z,15.10
2022-11-28T11:07:31.541Z,18.33
2022-11-28T11:10:01.979Z,16.37
2022-11-28T11:12:32.804Z,16.50
2022-11-28T11:15:00.481Z,21.30
2022-11-28T11:17:36.288Z,14.77
2022-11-28T11:20:26.724Z,16.10
2022-11-28T11:22:55.863Z,16.43
2022-11-28T11:25:24.381Z,16.23
2022-11-28T11:27:54.792Z,15.23
2022-11-28T11:30:28.124Z,17.67
2022-11-28T11:32:56.500Z,14.00
2022-11-28T11:35:26.567Z,18.13
2022-11-28T11:37:54.355Z,14.50
2022-11-28T11:40:25.801Z,17.47
2022-11-28T11:42:56.804Z,17.53
2022-11-28T11:45:30.026Z,15.93
2022-11-28T11:47:57.833Z,19.90
2022-11-28T11:50:27.093Z,15.40
2022-11-28T11:53:02.433Z,16.90
2022-11-28T11:55:32.746Z,17.43
2022-11-28T11:58:05.910Z,18.80
2022-11-28T12:00:37.295Z,19.37
2022-11-28T12:03:08.565Z,15.40
2022-11-28T12:05:59.326Z,22.07
2022-11-28T12:08:34.541Z,18.27
2022-11-28T12:11:11.942Z,24.17
2022-11-28T12:13:40.836Z,16.03
2022-11-28T12:16:16.134Z,14.47
2022-11-28T12:18:52.559Z,14.53
2022-11-28T12:21:25.067Z,30.13
2022-11-28T12:24:05.985Z,17.30
2022-11-28T12:26:40.587Z,16.00
2022-11-28T12:29:28.220Z,22.60
2022-11-28T12:32:05.583Z,22.53
2022-11-28T12:34:39.845Z,17.17
2022-11-28T12:37:14.045Z,18.47
2022-11-28T12:39:49.484Z,17.60
2022-11-28T12:42:42.527Z,18.27
2022-11-28T12:45:26.401Z,22.80
2022-11-28T12:48:02.643Z,19.17
2022-11-28T12:50:33.822Z,21.13
2022-11-28T12:53:23.919Z,19.93
2022-11-28T12:55:56.337Z,31.03
2022-11-28T12:58:29.219Z,16.20
2022-11-28T13:01:04.363Z,16.77
2022-11-28T13:03:41.476Z,26.63
2022-11-28T13:06:19.331Z,14.93
2022-11-28T13:08:54.827Z,17.20
2022-11-28T13:11:34.686Z,18.40
2022-11-28T13:14:06.599Z,17.90
2022-11-28T13:16:42.798Z,16.90
2022-11-28T13:19:25.846Z,17.90
2022-11-28T13:21:56.964Z,17.70
2022-11-28T13:24:28.692Z,18.97
2022-11-28T13:27:02.114Z,19.70
2022-11-28T13:29:34.826Z,18.40
2022-11-28T13:32:09.876Z,17.83
2022-11-28T13:34:37.717Z,18.03
2022-11-28T13:40:01.076Z,21.83
2022-11-28T13:45:31.773Z,19.70
2022-11-28T13:48:01.672Z,15.77
2022-11-28T13:50:41.591Z,15.90
2022-11-28T13:53:23.797Z,17.10
2022-11-28T13:55:53.169Z,31.30
2022-11-28T13:58:28.250Z,17.10
2022-11-28T14:01:01.902Z,19.00
2022-11-28T14:03:32.360Z,18.77
2022-11-28T14:06:01.734Z,18.27
2022-11-28T14:08:33.469Z,17.37
2022-11-28T14:11:12.844Z,19.63
2022-11-28T14:13:50.710Z,21.60
2022-11-28T14:16:26.344Z,26.20
2022-11-28T14:19:15.719Z,16.80
2022-11-28T14:21:54.483Z,20.70
2022-11-28T14:24:28.575Z,17.37
2022-11-28T14:26:58.758Z,19.40
2022-11-28T14:29:31.941Z,17.00
2022-11-28T14:32:28.535Z,24.00
2022-11-28T14:34:50.423Z,22.10
2022-11-28T14:37:50.454Z,18.10
2022-11-28T14:41:08.943Z,29.73
2022-11-28T14:43:43.765Z,19.20
2022-11-28T14:46:31.854Z,20.07
2022-11-28T14:49:23.011Z,23.27
2022-11-28T14:52:39.003Z,21.40
2022-11-28T14:55:20.496Z,24.33
2022-11-28T14:58:01.078Z,25.40
2022-11-28T15:00:30.168Z,22.20
2022-11-28T15:03:11.127Z,22.20
2022-11-28T15:05:41.421Z,22.80
2022-11-28T15:08:40.366Z,21.33
2022-11-28T15:11:21.065Z,25.13
2022-11-28T15:14:00.317Z,22.10
2022-11-28T15:16:29.989Z,21.00
2022-11-28T15:19:00.393Z,22.83
2022-11-28T15:21:29.076Z,22.17
2022-11-28T15:23:57.137Z,22.70
2022-11-28T15:26:30.532Z,23.07
2022-11-28T15:29:12.083Z,24.00
2022-11-28T15:31:40.004Z,20.80
2022-11-28T15:34:10.051Z,23.40
2022-11-28T15:36:39.243Z,23.07
2022-11-28T15:39:20.440Z,29.57
2022-11-28T15:41:49.454Z,23.53
2022-11-28T15:44:18.062Z,22.60
2022-11-28T15:46:45.900Z,24.73
2022-11-28T15:49:27.397Z,27.80
2022-11-28T15:51:56.598Z,25.90
2022-11-28T15:54:35.091Z,25.07
2022-11-28T15:57:05.714Z,25.80
2022-11-28T15:59:34.347Z,23.63
2022-11-28T16:02:05.583Z,21.80
2022-11-28T16:04:33.493Z,25.07
2022-11-28T16:07:02.552Z,22.73
2022-11-28T16:09:33.837Z,23.50
2022-11-28T16:12:04.323Z,23.20
2022-11-28T16:14:33.109Z,24.03
2022-11-28T16:17:02.672Z,27.13
2022-11-28T16:19:32.879Z,32.47
2022-11-28T16:22:02.517Z,30.43
2022-11-28T16:24:38.585Z,23.20
2022-11-28T16:27:07.870Z,26.50
2022-11-28T16:29:36.977Z,25.93
2022-11-28T16:32:09.064Z,26.10
2022-11-28T16:34:46.933Z,26.60
2022-11-28T16:37:14.944Z,27.30
2022-11-28T16:39:42.735Z,28.00
2022-11-28T16:42:17.363Z,28.00
2022-11-28T16:44:45.298Z,28.60
2022-11-28T16:47:27.196Z,24.27
2022-11-28T16:50:16.348Z,31.50
2022-11-28T16:52:48.718Z,19.90
2022-11-28T16:55:41.609Z,31.30
2022-11-28T16:58:18.516Z,31.20
2022-11-28T17:00:51.970Z,23.87
2022-11-28T17:03:41.892Z,21.40
2022-11-28T17:06:17.241Z,29.93
2022-11-28T17:08:44.883Z,26.80
2022-11-28T17:11:12.912Z,25.30
2022-11-28T17:13:42.194Z,25.93
2022-11-28T17:16:16.932Z,24.57
2022-11-28T17:18:45.258Z,34.37
2022-11-28T17:21:13.985Z,27.97
2022-11-28T17:23:42.161Z,24.20
2022-11-28T17:26:10.596Z,26.47
2022-11-28T17:28:38.776Z,24.83
2022-11-28T17:31:08.067Z,31.07
2022-11-28T17:33:38.393Z,31.80
2022-11-28T17:36:10.460Z,28.93
2022-11-28T17:38:38.038Z,27.57
2022-11-28T17:41:06.183Z,28.37
2022-11-28T17:43:38.857Z,26.90
2022-11-28T17:46:08.461Z,26.77
2022-11-28T17:48:36.371Z,28.03
2022-11-28T17:51:04.166Z,28.17
2022-11-28T17:53:32.254Z,30.60
2022-11-28T17:56:00.649Z,23.53
2022-11-28T17:58:29.302Z,28.80
2022-11-28T18:01:00.737Z,33.17
2022-11-28T18:03:30.414Z,28.23
2022-11-28T18:05:58.374Z,25.90
2022-11-28T18:08:26.360Z,26.53
2022-11-28T18:11:03.422Z,28.87
2022-11-28T18:13:31.229Z,27.43
2022-11-28T18:15:59.185Z,30.10
2022-11-28T18:18:27.380Z,28.97
2022-11-28T18:20:56.726Z,27.57
2022-11-28T18:23:24.974Z,26.67
2022-11-28T18:25:53.253Z,28.83
2022-11-28T18:28:22.023Z,28.27
2022-11-28T18:30:49.846Z,24.57
2022-11-28T18:33:18.035Z,79.23
2022-11-28T18:35:45.941Z,26.80
2022-11-28T18:38:17.407Z,29.17
2022-11-28T18:40:45.405Z,26.93
2022-11-28T18:43:13.291Z,24.70
2022-11-28T18:45:41.389Z,30.30
2022-11-28T18:48:09.091Z,24.47
2022-11-28T18:50:36.817Z,27.20
2022-11-28T18:53:04.885Z,26.93
2022-11-28T18:55:34.152Z,26.83
2022-11-28T18:58:02.116Z,27.00
2022-11-28T19:00:29.822Z,26.83
2022-11-28T19:02:58.133Z,25.47
2022-11-28T19:05:25.817Z,29.87
2022-11-28T19:07:53.647Z,31.10
2022-11-28T19:10:21.363Z,28.90
2022-11-28T19:12:50.531Z,26.83
2022-11-28T19:15:18.804Z,28.07
2022-11-28T19:17:48.218Z,26.80
2022-11-28T19:20:18.324Z,31.17
2022-11-28T19:22:46.284Z,26.30
2022-11-28T19:25:14.145Z,26.10
2022-11-28T19:27:42.033Z,31.97
2022-11-28T19:30:11.795Z,25.77
2022-11-28T19:32:40.106Z,31.73
2022-11-28T19:35:08.873Z,23.57
2022-11-28T19:37:36.919Z,26.67
2022-11-28T19:40:05.091Z,33.47
2022-11-28T19:42:32.901Z,28.10
2022-11-28T19:45:00.727Z,27.27
2022-11-28T19:47:29.815Z,29.10
2022-11-28T19:49:58.719Z,27.27
2022-11-28T19:52:26.595Z,31.67
2022-11-28T19:54:54.237Z,28.80
2022-11-28T19:57:21.933Z,26.00
2022-11-28T19:59:50.253Z,26.27
2022-11-28T20:02:21.528Z,29.23
2022-11-28T20:04:50.666Z,29.47
2022-11-28T20:07:18.563Z,26.40
2022-11-28T20:09:47.137Z,27.97
2022-11-28T20:12:15.028Z,28.00
2022-11-28T20:14:42.987Z,26.70
2022-11-28T20:17:10.643Z,27.03
2022-11-28T20:19:38.333Z,28.30
2022-11-28T20:22:07.270Z,27.80
2022-11-28T20:24:35.246Z,30.67
2022-11-28T20:27:03.079Z,25.90
2022-11-28T20:29:31.024Z,24.60
2022-11-28T20:31:58.965Z,33.83
2022-11-28T20:34:28.010Z,25.80
2022-11-28T20:36:55.792Z,28.80
2022-11-28T20:39:26.376Z,25.83
2022-11-28T20:41:54.075Z,28.70
2022-11-28T20:44:21.869Z,25.70
2022-11-28T20:46:50.010Z,27.37
2022-11-28T20:49:18.339Z,28.00
2022-11-28T20:51:46.272Z,25.77
2022-11-28T20:54:14.658Z,27.40
2022-11-28T20:57:19.225Z,23.87
2022-11-28T20:59:32.422Z,31.10
2022-11-28T21:02:00.225Z,28.57
2022-11-28T21:04:27.988Z,28.93
2022-11-28T21:06:55.765Z,27.97
2022-11-28T21:09:23.824Z,25.80
2022-11-28T21:11:58.205Z,32.73
2022-11-28T21:14:27.485Z,27.53
2022-11-28T21:16:55.775Z,22.30
2022-11-28T21:19:23.688Z,27.20
2022-11-28T21:21:51.411Z,29.90
2022-11-28T21:24:19.013Z,34.33
2022-11-28T21:26:52.975Z,30.37
2022-11-28T21:29:23.391Z,26.63
2022-11-28T21:31:51.243Z,29.23
2022-11-28T21:34:19.440Z,29.47
2022-11-28T21:36:47.469Z,27.90
2022-11-28T21:39:18.522Z,31.27
2022-11-28T21:41:46.574Z,28.83
2022-11-28T21:44:14.163Z,29.10
2022-11-28T21:46:43.187Z,30.73
2022-11-28T21:49:11.112Z,26.87
2022-11-28T21:51:40.678Z,25.17
2022-11-28T21:54:08.781Z,26.50
2022-11-28T21:56:36.977Z,27.00
2022-11-28T21:59:05.663Z,29.60
2022-11-28T22:01:33.628Z,26.80
2022-11-28T22:04:03.302Z,28.43
2022-11-28T22:06:32.450Z,30.33
2022-11-28T22:09:08.743Z,31.20
2022-11-28T22:11:37.191Z,26.93
2022-11-28T22:14:04.835Z,32.30
2022-11-28T22:16:33.295Z,29.60
2022-11-28T22:19:02.470Z,29.53
2022-11-28T22:24:17.958Z,26.60
2022-11-28T22:26:45.569Z,29.00
2022-11-28T22:29:13.852Z,29.80
2022-11-28T22:31:42.003Z,30.07
2022-11-28T22:34:11.187Z,26.23
2022-11-28T22:36:38.993Z,28.70
2022-11-28T22:39:07.118Z,29.83
2022-11-28T22:41:35.072Z,28.10
2022-11-28T22:44:04.245Z,27.93
2022-11-28T22:46:32.725Z,26.47
2022-11-28T22:49:01.590Z,35.13
2022-11-28T22:51:31.456Z,27.70
2022-11-28T22:54:00.670Z,28.70
2022-11-28T22:56:30.122Z,30.10
2022-11-28T22:58:58.976Z,30.97
2022-11-28T23:01:30.162Z,28.50
2022-11-28T23:03:57.982Z,34.93
2022-11-28T23:06:27.436Z,30.53
2022-11-28T23:08:57.550Z,28.50
2022-11-28T23:11:29.065Z,30.60
2022-11-28T23:13:56.745Z,30.90
2022-11-28T23:16:26.901Z,28.17
2022-11-28T23:18:56.708Z,36.47
2022-11-28T23:21:25.657Z,33.47
2022-11-28T23:23:53.836Z,31.23
2022-11-28T23:26:25.370Z,33.10
2022-11-28T23:28:53.838Z,28.50
2022-11-28T23:31:23.467Z,32.80
2022-11-28T23:33:51.690Z,35.10
2022-11-28T23:36:21.244Z,31.87
2022-11-28T23:38:50.581Z,33.40
2022-11-28T23:41:18.710Z,33.83
2022-11-28T23:43:47.868Z,35.03
2022-11-28T23:46:16.333Z,36.80
2022-11-28T23:48:44.165Z,33.67
2022-11-28T23:51:12.884Z,34.80
2022-11-28T23:53:41.365Z,37.60
2022-11-28T23:56:11.405Z,39.90
2022-11-28T23:58:39.446Z,32.07
